createdAt,value
2019-05-15T00:01:28.376Z,4.33
2019-05-15T00:03:49.288Z,2.42
2019-05-15T00:06:10.171Z,4.00
2019-05-15T00:08:30.626Z,3.47
2019-05-15T00:10:51.155Z,2.77
2019-05-15T00:13:11.709Z,3.55
2019-05-15T00:15:32.276Z,4.65
2019-05-15T00:17:52.817Z,3.87
2019-05-15T00:20:13.488Z,3.50
2019-05-15T00:22:33.989Z,3.80
2019-05-15T00:24:54.583Z,4.90
2019-05-15T00:27:15.114Z,3.87
2019-05-15T00:29:35.720Z,3.22
2019-05-15T00:31:58.767Z,2.62
2019-05-15T00:34:18.448Z,2.67
2019-05-15T00:36:38.917Z,3.55
2019-05-15T00:38:59.401Z,4.95
2019-05-15T00:41:19.908Z,2.58
2019-05-15T00:43:40.520Z,2.47
2019-05-15T00:46:01.027Z,4.55
2019-05-15T00:48:21.607Z,4.37
2019-05-15T00:50:42.153Z,3.20
2019-05-15T00:53:02.739Z,5.37
2019-05-15T00:55:23.341Z,3.05
2019-05-15T00:57:44.871Z,4.25
2019-05-15T01:00:08.991Z,2.80
2019-05-15T01:02:29.615Z,3.70
2019-05-15T01:04:50.129Z,2.90
2019-05-15T01:07:10.912Z,2.60
2019-05-15T01:09:31.466Z,3.15
2019-05-15T01:11:52.007Z,3.35
2019-05-15T01:14:12.599Z,4.00
2019-05-15T01:16:33.408Z,6.15
2019-05-15T01:18:53.898Z,2.50
2019-05-15T01:21:18.799Z,3.58
2019-05-15T01:23:39.460Z,3.67
2019-05-15T01:25:59.994Z,2.95
2019-05-15T01:28:20.511Z,3.37
2019-05-15T01:30:41.049Z,2.12
2019-05-15T01:33:01.647Z,3.22
2019-05-15T01:35:22.231Z,2.83
2019-05-15T01:37:42.838Z,4.60
2019-05-15T01:40:03.379Z,3.80
2019-05-15T01:42:23.944Z,3.60
2019-05-15T01:44:44.415Z,3.25
2019-05-15T01:47:08.324Z,3.27
2019-05-15T01:49:28.094Z,2.77
2019-05-15T01:51:48.864Z,5.90
2019-05-15T01:54:09.389Z,2.33
2019-05-15T01:56:29.865Z,2.65
2019-05-15T01:58:50.318Z,6.53
2019-05-15T02:01:10.818Z,2.58
2019-05-15T02:03:31.337Z,2.95
2019-05-15T02:05:51.841Z,2.90
2019-05-15T02:08:12.295Z,4.55
2019-05-15T02:10:32.830Z,4.33
2019-05-15T02:12:53.296Z,2.62
2019-05-15T02:15:14.060Z,4.00
2019-05-15T02:17:34.578Z,6.65
2019-05-15T02:19:55.083Z,2.67
2019-05-15T02:22:15.655Z,3.08
2019-05-15T02:24:38.850Z,2.33
2019-05-15T02:26:58.817Z,2.65
2019-05-15T02:29:24.231Z,2.70
2019-05-15T02:31:41.690Z,3.70
2019-05-15T02:34:02.222Z,2.90
2019-05-15T02:36:22.648Z,2.92
2019-05-15T02:38:43.152Z,2.00
2019-05-15T02:41:03.759Z,3.37
2019-05-15T02:43:24.347Z,2.33
2019-05-15T02:45:44.876Z,3.85
2019-05-15T02:48:08.612Z,3.15
2019-05-15T02:50:29.134Z,1.50
2019-05-15T02:52:49.835Z,1.40
2019-05-15T02:55:10.699Z,2.45
2019-05-15T02:57:31.226Z,2.62
2019-05-15T02:59:51.800Z,4.05
2019-05-15T03:02:12.397Z,8.25
2019-05-15T03:04:32.927Z,2.80
2019-05-15T03:06:53.631Z,2.10
2019-05-15T03:09:14.281Z,2.02
2019-05-15T03:11:34.811Z,5.45
2019-05-15T03:13:59.183Z,3.22
2019-05-15T03:16:19.534Z,6.90
2019-05-15T03:18:40.360Z,2.33
2019-05-15T03:21:01.035Z,3.40
2019-05-15T03:23:21.645Z,3.62
2019-05-15T03:25:42.447Z,4.22
2019-05-15T03:28:03.051Z,2.85
2019-05-15T03:30:23.574Z,5.83
2019-05-15T03:32:54.096Z,2.62
2019-05-15T03:35:13.168Z,3.42
2019-05-15T03:37:33.228Z,2.45
2019-05-15T03:39:52.182Z,2.03
2019-05-15T03:42:12.764Z,1.42
2019-05-15T03:44:33.303Z,1.92
2019-05-15T03:46:53.814Z,4.90
2019-05-15T03:49:14.323Z,5.70
2019-05-15T03:51:34.902Z,3.65
2019-05-15T03:53:55.446Z,5.72
2019-05-15T03:56:18.901Z,7.42
2019-05-15T03:58:40.221Z,3.80
2019-05-15T04:01:00.535Z,6.08
2019-05-15T04:03:21.095Z,4.47
2019-05-15T04:05:41.824Z,4.17
2019-05-15T04:08:02.414Z,4.78
2019-05-15T04:10:22.920Z,2.37
2019-05-15T04:12:44.600Z,3.92
2019-05-15T04:15:09.974Z,8.03
2019-05-15T04:17:30.415Z,8.30
2019-05-15T04:19:50.936Z,6.33
2019-05-15T04:22:12.058Z,5.20
2019-05-15T04:24:34.014Z,3.12
2019-05-15T04:26:59.589Z,4.90
2019-05-15T04:29:19.402Z,3.75
2019-05-15T04:31:54.565Z,6.50
2019-05-15T04:34:02.450Z,2.98
2019-05-15T04:36:23.092Z,3.15
2019-05-15T04:38:43.553Z,5.28
2019-05-15T04:41:04.216Z,4.33
2019-05-15T04:43:24.949Z,2.47
2019-05-15T04:45:45.456Z,6.03
2019-05-15T04:48:09.526Z,2.65
2019-05-15T04:50:28.803Z,3.23
2019-05-15T04:52:50.153Z,3.02
2019-05-15T04:55:11.198Z,9.15
2019-05-15T04:57:34.014Z,5.10
2019-05-15T04:59:54.588Z,4.70
2019-05-15T05:02:19.512Z,4.37
2019-05-15T05:04:38.691Z,3.27
2019-05-15T05:07:00.256Z,4.75
2019-05-15T05:09:21.201Z,2.65
2019-05-15T05:11:41.850Z,7.42
2019-05-15T05:14:02.389Z,3.08
2019-05-15T05:16:22.922Z,3.75
2019-05-15T05:18:43.511Z,2.92
2019-05-15T05:21:05.032Z,4.03
2019-05-15T05:23:25.622Z,3.65
2019-05-15T05:25:46.246Z,4.45
2019-05-15T05:28:08.705Z,6.20
2019-05-15T05:30:29.329Z,5.37
2019-05-15T05:32:49.948Z,6.50
2019-05-15T05:35:10.632Z,3.65
2019-05-15T05:37:31.224Z,2.98
2019-05-15T05:39:51.819Z,5.25
2019-05-15T05:42:12.357Z,3.67
2019-05-15T05:44:32.994Z,2.77
2019-05-15T05:46:53.511Z,5.45
2019-05-15T05:49:14.082Z,3.33
2019-05-15T05:51:34.576Z,2.65
2019-05-15T05:53:55.089Z,4.35
2019-05-15T05:56:17.948Z,2.98
2019-05-15T05:58:38.990Z,2.60
2019-05-15T06:00:59.859Z,3.98
2019-05-15T06:03:21.363Z,3.58
2019-05-15T06:05:41.978Z,3.75
2019-05-15T06:08:02.484Z,5.08
2019-05-15T06:10:22.962Z,4.60
2019-05-15T06:12:45.370Z,2.85
2019-05-15T06:15:08.806Z,4.42
2019-05-15T06:17:29.621Z,5.58
2019-05-15T06:19:50.437Z,3.87
2019-05-15T06:22:11.169Z,7.08
2019-05-15T06:24:31.882Z,10.78
2019-05-15T06:26:52.472Z,4.00
2019-05-15T06:29:13.000Z,2.92
2019-05-15T06:31:33.508Z,3.37
2019-05-15T06:33:54.007Z,4.65
2019-05-15T06:36:14.461Z,4.28
2019-05-15T06:38:34.970Z,5.83
2019-05-15T06:40:58.118Z,5.28
2019-05-15T06:43:19.187Z,7.80
2019-05-15T06:48:01.485Z,8.65
2019-05-15T06:50:24.897Z,6.42
2019-05-15T06:52:45.372Z,5.87
2019-05-15T06:55:09.147Z,8.20
2019-05-15T06:57:29.468Z,4.22
2019-05-15T06:59:49.947Z,12.63
2019-05-15T07:02:10.615Z,5.00
2019-05-15T07:04:31.194Z,4.50
2019-05-15T07:06:51.800Z,4.53
2019-05-15T07:09:12.385Z,4.65
2019-05-15T07:11:32.857Z,8.13
2019-05-15T07:13:53.420Z,6.87
2019-05-15T07:16:13.967Z,4.55
2019-05-15T07:18:34.490Z,3.17
2019-05-15T07:20:55.184Z,4.08
2019-05-15T07:23:18.339Z,3.52
2019-05-15T07:25:39.083Z,4.15
2019-05-15T07:27:59.704Z,5.00
2019-05-15T07:30:20.690Z,7.72
2019-05-15T07:32:41.380Z,4.90
2019-05-15T07:35:01.982Z,3.75
2019-05-15T07:37:22.560Z,2.80
2019-05-15T07:39:43.114Z,5.47
2019-05-15T07:42:03.813Z,3.10
2019-05-15T07:44:24.465Z,6.50
2019-05-15T07:46:45.038Z,4.62
2019-05-15T07:49:05.056Z,4.15
2019-05-15T07:51:25.604Z,4.65
2019-05-15T07:53:48.699Z,4.53
2019-05-15T07:56:11.606Z,6.12
2019-05-15T07:58:30.358Z,5.47
2019-05-15T08:00:51.006Z,4.53
2019-05-15T08:03:11.550Z,4.42
2019-05-15T08:05:32.040Z,5.15
2019-05-15T08:07:52.573Z,3.27
2019-05-15T08:10:13.521Z,5.20
2019-05-15T08:12:34.078Z,4.62
2019-05-15T08:14:54.600Z,10.13
2019-05-15T08:17:18.234Z,4.90
2019-05-15T08:19:38.364Z,4.10
2019-05-15T08:21:59.107Z,4.70
2019-05-15T08:24:19.704Z,4.25
2019-05-15T08:26:45.323Z,2.75
2019-05-15T08:29:01.940Z,4.08
2019-05-15T08:31:21.886Z,5.95
2019-05-15T08:33:42.455Z,3.67
2019-05-15T08:36:02.434Z,6.72
2019-05-15T08:38:23.265Z,13.62
2019-05-15T08:40:43.935Z,2.83
2019-05-15T08:43:04.621Z,4.00
2019-05-15T08:45:25.092Z,1.72
2019-05-15T08:47:45.613Z,0.70
2019-05-15T08:50:08.678Z,1.55
2019-05-15T08:52:28.373Z,2.35
2019-05-15T08:54:48.869Z,1.37
2019-05-15T08:57:09.396Z,2.58
2019-05-15T08:59:29.643Z,1.12
2019-05-15T09:01:49.645Z,4.08
2019-05-15T09:04:09.945Z,0.80
2019-05-15T09:06:30.158Z,1.53
2019-05-15T09:08:51.764Z,0.53
2019-05-15T09:11:12.599Z,1.73
2019-05-15T09:13:33.108Z,1.52
2019-05-15T09:15:53.223Z,1.60
2019-05-15T09:18:16.232Z,0.93
2019-05-15T09:20:38.163Z,2.27
2019-05-15T09:22:58.276Z,0.75
2019-05-15T09:25:19.337Z,1.00
2019-05-15T09:27:39.786Z,1.30
2019-05-15T09:30:00.001Z,0.90
2019-05-15T09:32:20.260Z,3.23
2019-05-15T09:34:50.465Z,1.17
2019-05-15T09:37:02.321Z,1.40
2019-05-15T09:39:22.576Z,0.70
2019-05-15T09:41:42.840Z,0.97
2019-05-15T09:44:03.590Z,0.60
2019-05-15T09:46:23.844Z,1.97
2019-05-15T09:48:47.471Z,0.83
2019-05-15T09:51:06.290Z,0.60
2019-05-15T09:53:28.477Z,0.47
2019-05-15T09:55:49.327Z,1.27
2019-05-15T09:58:09.937Z,1.00
2019-05-15T10:00:31.336Z,3.27
2019-05-15T10:02:51.634Z,0.77
2019-05-15T10:05:12.212Z,2.80
2019-05-15T10:07:32.449Z,5.03
2019-05-15T10:09:52.846Z,2.90
2019-05-15T10:12:13.052Z,2.20
2019-05-15T10:14:33.520Z,1.37
2019-05-15T10:16:53.830Z,1.00
2019-05-15T10:19:14.129Z,2.70
2019-05-15T10:21:34.362Z,0.60
2019-05-15T10:23:54.620Z,3.50
2019-05-15T10:26:14.874Z,3.57
2019-05-15T10:28:35.221Z,0.50
2019-05-15T10:30:55.643Z,0.43
2019-05-15T10:33:16.044Z,1.40
2019-05-15T10:35:39.107Z,0.63
2019-05-15T10:37:59.195Z,0.90
2019-05-15T10:40:20.604Z,1.03
2019-05-15T10:42:40.825Z,0.57
2019-05-15T10:45:01.333Z,0.87
2019-05-15T10:47:21.524Z,1.83
2019-05-15T10:49:42.813Z,0.87
2019-05-15T10:52:02.966Z,1.63
2019-05-15T10:54:23.270Z,0.70
2019-05-15T10:56:43.691Z,3.10
2019-05-15T10:59:04.008Z,0.90
2019-05-15T11:01:24.266Z,1.33
2019-05-15T11:03:44.607Z,0.50
2019-05-15T11:06:05.379Z,2.73
2019-05-15T11:08:28.799Z,3.50
2019-05-15T11:10:49.437Z,1.10
2019-05-15T11:13:09.499Z,4.20
2019-05-15T11:15:29.795Z,3.30
2019-05-15T11:17:49.944Z,0.73
2019-05-15T11:20:10.779Z,0.50
2019-05-15T11:22:31.134Z,2.80
2019-05-15T11:24:53.102Z,1.23
2019-05-15T11:27:13.820Z,0.40
2019-05-15T11:29:38.160Z,1.10
2019-05-15T11:31:58.743Z,1.57
2019-05-15T11:34:19.005Z,0.87
2019-05-15T11:36:40.323Z,0.50
2019-05-15T11:39:00.623Z,0.73
2019-05-15T11:41:21.224Z,4.80
2019-05-15T11:43:41.544Z,2.13
2019-05-15T11:46:01.905Z,0.70
2019-05-15T11:48:22.377Z,1.43
2019-05-15T11:50:43.687Z,0.70
2019-05-15T11:53:03.896Z,0.70
2019-05-15T11:55:24.284Z,0.80
2019-05-15T12:00:15.000Z,1.25
2019-05-15T12:02:30.513Z,2.80
2019-05-15T12:04:50.447Z,0.88
2019-05-15T12:07:10.835Z,0.67
2019-05-15T12:09:31.147Z,0.87
2019-05-15T12:11:51.456Z,0.73
2019-05-15T12:14:11.762Z,1.90
2019-05-15T12:16:35.542Z,3.00
2019-05-15T12:18:53.856Z,0.90
2019-05-15T12:21:16.956Z,1.10
2019-05-15T12:23:38.141Z,1.00
2019-05-15T12:25:59.838Z,1.63
2019-05-15T12:28:19.822Z,2.13
2019-05-15T12:30:40.626Z,0.80
2019-05-15T12:33:01.238Z,1.57
2019-05-15T12:35:21.652Z,1.53
2019-05-15T12:37:42.267Z,1.13
2019-05-15T13:01:22.849Z,3.42
2019-05-15T13:03:42.815Z,2.47
2019-05-15T13:06:03.084Z,1.47
2019-05-15T13:08:23.315Z,1.50
2019-05-15T13:10:45.470Z,5.03
2019-05-15T13:13:05.771Z,2.10
2019-05-15T13:15:28.189Z,0.90
2019-05-15T13:17:52.951Z,2.45
2019-05-15T13:20:11.575Z,0.98
2019-05-15T13:22:31.580Z,2.45
2019-05-15T13:24:51.525Z,1.07
2019-05-15T13:27:12.057Z,2.22
2019-05-15T13:29:32.697Z,1.20
2019-05-15T13:31:54.789Z,1.50
2019-05-15T13:34:15.104Z,2.20
2019-05-15T13:36:35.446Z,1.10
2019-05-15T13:38:57.831Z,1.20
2019-05-15T13:41:18.910Z,0.70
2019-05-15T13:43:40.443Z,2.35
2019-05-15T13:46:02.276Z,1.05
2019-05-15T13:48:22.911Z,1.15
2019-05-15T13:50:43.411Z,0.93
2019-05-15T13:53:03.953Z,2.65
2019-05-15T13:55:25.388Z,0.90
2019-05-15T13:57:48.445Z,1.00
2019-05-15T14:00:10.586Z,1.90
2019-05-15T14:02:30.824Z,1.05
2019-05-15T14:04:53.847Z,1.12
2019-05-15T14:07:14.103Z,2.12
2019-05-15T14:09:34.664Z,1.92
2019-05-15T14:11:55.273Z,2.47
2019-05-15T14:14:15.243Z,1.72
2019-05-15T14:16:38.206Z,1.65
2019-05-15T14:18:58.894Z,2.30
2019-05-15T14:21:19.481Z,1.72
2019-05-15T14:23:40.079Z,1.40
2019-05-15T14:26:15.101Z,1.70
2019-05-15T14:28:23.009Z,0.88
2019-05-15T14:30:43.567Z,1.12
2019-05-15T14:33:04.098Z,1.90
2019-05-15T14:35:24.700Z,1.62
2019-05-15T14:37:58.879Z,1.57
2019-05-15T14:40:09.012Z,1.20
2019-05-15T14:42:29.727Z,3.27
2019-05-15T14:44:51.364Z,2.33
2019-05-15T14:47:11.945Z,1.95
2019-05-15T14:49:35.192Z,1.22
2019-05-15T14:52:05.726Z,1.57
2019-05-15T14:54:18.317Z,1.32
2019-05-15T14:56:38.909Z,1.00
2019-05-15T14:59:00.049Z,2.65
2019-05-15T15:01:20.564Z,1.15
2019-05-15T15:03:41.067Z,1.60
2019-05-15T15:06:01.704Z,1.22
2019-05-15T15:08:25.292Z,0.93
2019-05-15T15:10:44.372Z,1.05
2019-05-15T15:13:05.053Z,0.80
2019-05-15T15:15:25.563Z,1.37
2019-05-15T15:17:46.076Z,3.83
2019-05-15T15:20:07.069Z,1.02
2019-05-15T15:22:28.450Z,1.25
2019-05-15T15:24:49.162Z,1.80
2019-05-15T15:27:09.907Z,1.62
2019-05-15T15:29:30.453Z,2.15
2019-05-15T15:31:51.051Z,1.42
2019-05-15T15:34:11.621Z,1.90
2019-05-15T15:36:32.147Z,1.50
2019-05-15T15:38:52.753Z,2.10
2019-05-15T15:41:13.434Z,1.95
2019-05-15T15:43:33.901Z,2.30
2019-05-15T15:45:54.525Z,1.82
2019-05-15T15:48:15.260Z,1.50
2019-05-15T15:50:38.101Z,2.15
2019-05-15T15:52:59.307Z,1.47
2019-05-15T15:57:40.109Z,1.32
2019-05-15T16:00:00.736Z,1.70
2019-05-15T16:02:21.298Z,1.70
2019-05-15T16:04:41.805Z,1.55
2019-05-15T16:07:02.343Z,1.52
2019-05-15T16:09:22.875Z,1.27
2019-05-15T16:11:43.323Z,1.40
2019-05-15T16:14:09.183Z,1.62
2019-05-15T16:16:29.141Z,1.82
2019-05-15T16:18:49.316Z,1.52
2019-05-15T16:21:10.213Z,2.83
2019-05-15T16:23:31.119Z,3.52
2019-05-15T16:25:51.812Z,1.32
2019-05-15T16:28:12.351Z,1.65
2019-05-15T16:30:32.888Z,2.22
2019-05-15T16:32:53.471Z,3.10
2019-05-15T16:35:14.367Z,4.25
2019-05-15T16:37:34.322Z,7.92
2019-05-15T16:39:57.220Z,4.92
2019-05-15T16:42:18.065Z,2.95
2019-05-15T16:44:38.778Z,5.22
2019-05-15T16:47:00.354Z,4.45
2019-05-15T16:49:20.576Z,9.00
2019-05-15T16:51:41.161Z,2.58
2019-05-15T16:54:01.713Z,6.30
2019-05-15T16:56:21.961Z,6.47
2019-05-15T16:58:47.954Z,5.65
2019-05-15T17:01:08.142Z,7.20
2019-05-15T17:03:30.432Z,10.32
2019-05-15T17:05:50.682Z,6.50
2019-05-15T17:08:11.318Z,10.38
2019-05-15T17:10:31.988Z,7.30
2019-05-15T17:12:52.280Z,6.23
2019-05-15T17:15:13.339Z,10.10
2019-05-15T17:17:33.887Z,6.10
2019-05-15T17:19:54.701Z,7.25
2019-05-15T17:22:15.365Z,11.05
2019-05-15T17:24:36.548Z,7.58
2019-05-15T17:26:59.571Z,7.83
2019-05-15T17:29:20.355Z,8.45
2019-05-15T17:31:40.918Z,9.75
2019-05-15T17:34:01.513Z,7.50
2019-05-15T17:36:22.021Z,11.95
2019-05-15T17:38:42.477Z,8.95
2019-05-15T17:41:03.024Z,8.95
2019-05-15T17:43:23.578Z,11.80
2019-05-15T17:45:44.099Z,11.40
2019-05-15T17:48:04.768Z,9.33
2019-05-15T17:50:25.260Z,10.38
2019-05-15T17:52:45.841Z,8.60
2019-05-15T17:55:07.117Z,7.45
2019-05-15T17:57:28.621Z,7.20
2019-05-15T17:59:51.240Z,7.17
2019-05-15T18:02:11.723Z,6.45
2019-05-15T18:04:32.231Z,6.87
2019-05-15T18:06:52.656Z,8.23
2019-05-15T18:09:13.260Z,8.05
2019-05-15T18:11:33.789Z,10.20
2019-05-15T18:13:54.434Z,12.33
2019-05-15T18:16:14.913Z,8.65
2019-05-15T18:18:35.615Z,9.03
2019-05-15T18:20:58.163Z,11.08
2019-05-15T18:23:18.934Z,11.45
2019-05-15T18:25:40.498Z,8.78
2019-05-15T18:28:01.148Z,11.33
2019-05-15T18:30:22.023Z,15.05
2019-05-15T18:32:42.939Z,10.70
2019-05-15T18:35:03.958Z,11.55
2019-05-15T18:37:24.792Z,10.40
2019-05-15T18:39:45.389Z,10.98
2019-05-15T18:42:06.063Z,9.38
2019-05-15T18:44:28.344Z,11.00
2019-05-15T18:46:48.977Z,9.40
2019-05-15T18:49:09.645Z,9.43
2019-05-15T18:51:30.210Z,7.70
2019-05-15T18:53:50.907Z,9.13
2019-05-15T18:56:11.642Z,8.83
2019-05-15T18:58:32.170Z,9.95
2019-05-15T19:00:52.827Z,8.65
2019-05-15T19:03:19.395Z,10.58
2019-05-15T19:05:35.213Z,5.47
2019-05-15T19:07:57.728Z,10.48
2019-05-15T19:10:19.517Z,8.23
2019-05-15T19:12:40.161Z,9.30
2019-05-15T19:15:00.760Z,7.60
2019-05-15T19:17:21.259Z,6.75
2019-05-15T19:19:41.857Z,10.90
2019-05-15T19:22:02.426Z,8.78
2019-05-15T19:24:23.096Z,8.43
2019-05-15T19:26:43.678Z,11.85
2019-05-15T19:29:08.058Z,9.05
2019-05-15T19:31:30.322Z,7.00
2019-05-15T19:33:49.436Z,9.08
2019-05-15T19:36:10.184Z,8.95
2019-05-15T19:38:30.766Z,10.38
2019-05-15T19:40:51.371Z,10.50
2019-05-15T19:43:12.057Z,8.60
2019-05-15T19:45:32.733Z,10.35
2019-05-15T19:47:53.697Z,9.83
2019-05-15T19:50:14.958Z,11.48
2019-05-15T19:52:36.267Z,7.60
2019-05-15T19:54:57.786Z,11.48
2019-05-15T19:57:18.680Z,9.58
2019-05-15T19:59:39.284Z,11.55
2019-05-15T20:01:59.973Z,9.23
2019-05-15T20:04:22.154Z,10.13
2019-05-15T20:06:42.783Z,13.68
2019-05-15T20:09:07.766Z,11.35
2019-05-15T20:11:28.555Z,10.60
2019-05-15T20:13:49.228Z,10.63
2019-05-15T20:16:09.799Z,12.18
2019-05-15T20:18:30.430Z,12.25
2019-05-15T20:20:51.101Z,11.28
2019-05-15T20:23:11.789Z,12.80
2019-05-15T20:25:32.418Z,11.45
2019-05-15T20:27:52.953Z,12.82
2019-05-15T20:30:17.829Z,10.60
2019-05-15T20:32:38.652Z,13.78
2019-05-15T20:34:59.521Z,13.40
2019-05-15T20:37:20.088Z,13.50
2019-05-15T20:39:40.741Z,11.97
2019-05-15T20:42:01.384Z,16.70
2019-05-15T20:44:23.067Z,17.98
2019-05-15T20:46:43.583Z,16.70
2019-05-15T20:49:04.188Z,14.85
2019-05-15T20:51:24.831Z,17.70
2019-05-15T20:53:45.467Z,18.52
2019-05-15T20:56:08.194Z,19.65
2019-05-15T20:58:28.359Z,16.30
2019-05-15T21:00:49.619Z,17.25
2019-05-15T21:03:10.524Z,19.52
2019-05-15T21:05:31.258Z,16.48
2019-05-15T21:07:52.095Z,20.97
2019-05-15T21:10:13.334Z,8.13
2019-05-15T21:12:34.114Z,11.38
2019-05-15T21:14:54.658Z,12.28
2019-05-15T21:17:15.146Z,14.55
2019-05-15T21:19:35.599Z,20.08
2019-05-15T21:21:56.132Z,16.20
2019-05-15T21:24:18.210Z,15.53
2019-05-15T21:26:38.880Z,17.87
2019-05-15T21:28:59.440Z,15.05
2019-05-15T21:31:22.117Z,14.85
2019-05-15T21:33:42.257Z,17.10
2019-05-15T21:36:02.896Z,19.35
2019-05-15T21:38:23.562Z,15.45
2019-05-15T21:40:44.096Z,14.58
2019-05-15T21:43:04.714Z,17.98
2019-05-15T21:45:25.302Z,13.35
2019-05-15T21:47:45.820Z,14.33
2019-05-15T21:50:08.109Z,13.08
2019-05-15T21:52:29.335Z,8.65
2019-05-15T21:54:50.406Z,16.15
2019-05-15T21:57:28.755Z,11.12
2019-05-15T21:59:33.353Z,12.45
2019-05-15T22:01:54.040Z,9.10
2019-05-15T22:04:14.772Z,4.62
2019-05-15T22:06:35.435Z,5.58
2019-05-15T22:08:58.231Z,5.58
2019-05-15T22:11:21.942Z,3.45
2019-05-15T22:13:40.840Z,3.15
2019-05-15T22:16:01.440Z,1.95
2019-05-15T22:18:23.272Z,1.95
2019-05-15T22:20:43.835Z,2.35
2019-05-15T22:23:04.507Z,0.93
2019-05-15T22:25:25.031Z,1.25
2019-05-15T22:27:45.669Z,0.95
2019-05-15T22:30:08.230Z,1.80
2019-05-15T22:32:29.224Z,0.60
2019-05-15T22:35:05.646Z,0.82
2019-05-15T22:37:12.161Z,1.35
2019-05-15T22:39:32.691Z,1.50
2019-05-15T22:41:53.201Z,2.75
2019-05-15T22:44:13.715Z,1.07
2019-05-15T22:46:34.341Z,1.42
2019-05-15T22:48:54.871Z,0.85
2019-05-15T22:51:15.304Z,0.60
2019-05-15T22:53:38.168Z,0.42
2019-05-15T22:55:58.818Z,1.17
2019-05-15T22:58:19.353Z,0.80
2019-05-15T23:00:40.043Z,0.60
2019-05-15T23:03:00.712Z,0.60
2019-05-15T23:05:27.890Z,1.12
2019-05-15T23:07:43.509Z,0.78
2019-05-15T23:10:06.031Z,0.60
2019-05-15T23:12:26.242Z,0.20
2019-05-15T23:14:48.508Z,0.47
2019-05-15T23:17:08.549Z,0.57
2019-05-15T23:19:29.145Z,0.80
2019-05-15T23:21:49.654Z,3.25
2019-05-15T23:24:10.256Z,0.75
2019-05-15T23:26:30.765Z,0.75
2019-05-15T23:28:51.476Z,0.47
2019-05-15T23:31:15.143Z,0.72
2019-05-15T23:33:35.672Z,1.60
2019-05-15T23:35:58.562Z,0.40
2019-05-15T23:38:18.674Z,0.57
2019-05-15T23:40:39.270Z,0.50
2019-05-15T23:42:59.801Z,0.37
2019-05-15T23:45:20.326Z,0.30
2019-05-15T23:47:40.843Z,2.02
2019-05-15T23:50:01.392Z,0.40
2019-05-15T23:52:21.950Z,0.93
2019-05-15T23:54:42.377Z,0.62
2019-05-15T23:57:03.004Z,1.00
2019-05-15T23:59:23.443Z,0.20
